sensor_id;sensor_type;location;lat;lon;timestamp;temperature;humidity
73586;DHT22;61865;50.232;18.614;2022-08-03T00:02:16;13.40;99.90
73586;DHT22;61865;50.232;18.614;2022-08-03T00:04:38;13.40;99.90
73586;DHT22;61865;50.232;18.614;2022-08-03T00:06:59;13.40;99.90
73586;DHT22;61865;50.232;18.614;2022-08-03T00:09:21;13.40;99.90
73586;DHT22;61865;50.232;18.614;2022-08-03T00:11:43;13.40;99.90
73586;DHT22;61865;50.232;18.614;2022-08-03T00:14:06;13.40;99.90
73586;DHT22;61865;50.232;18.614;2022-08-03T00:16:29;13.30;99.90
73586;DHT22;61865;50.232;18.614;2022-08-03T00:18:51;13.30;99.90
73586;DHT22;61865;50.232;18.614;2022-08-03T00:21:13;13.30;99.90
73586;DHT22;61865;50.232;18.614;2022-08-03T00:23:35;13.30;99.90
73586;DHT22;61865;50.232;18.614;2022-08-03T00:25:57;13.20;99.90
73586;DHT22;61865;50.232;18.614;2022-08-03T00:28:19;13.20;99.90
73586;DHT22;61865;50.232;18.614;2022-08-03T00:30:40;13.10;99.90
73586;DHT22;61865;50.232;18.614;2022-08-03T00:33:04;13.00;99.90
73586;DHT22;61865;50.232;18.614;2022-08-03T00:35:26;12.90;99.90
73586;DHT22;61865;50.232;18.614;2022-08-03T00:37:48;12.90;99.90
73586;DHT22;61865;50.232;18.614;2022-08-03T00:40:11;12.80;99.90
73586;DHT22;61865;50.232;18.614;2022-08-03T00:42:33;12.70;99.90
73586;DHT22;61865;50.232;18.614;2022-08-03T00:44:55;12.70;99.90
73586;DHT22;61865;50.232;18.614;2022-08-03T00:47:17;12.60;99.90
73586;DHT22;61865;50.232;18.614;2022-08-03T00:49:41;12.60;99.90
73586;DHT22;61865;50.232;18.614;2022-08-03T00:52:03;12.50;99.90
73586;DHT22;61865;50.232;18.614;2022-08-03T00:54:25;12.40;99.90
73586;DHT22;61865;50.232;18.614;2022-08-03T00:56:49;12.40;99.90
73586;DHT22;61865;50.232;18.614;2022-08-03T00:59:11;12.30;99.90
73586;DHT22;61865;50.232;18.614;2022-08-03T01:01:33;12.20;99.90
73586;DHT22;61865;50.232;18.614;2022-08-03T01:03:55;12.20;99.90
73586;DHT22;61865;50.232;18.614;2022-08-03T01:06:25;12.10;99.90
73586;DHT22;61865;50.232;18.614;2022-08-03T01:08:53;12.00;99.90
73586;DHT22;61865;50.232;18.614;2022-08-03T01:11:26;12.00;99.90
73586;DHT22;61865;50.232;18.614;2022-08-03T01:14:00;12.10;99.90
73586;DHT22;61865;50.232;18.614;2022-08-03T01:16:28;12.20;99.90
73586;DHT22;61865;50.232;18.614;2022-08-03T01:21:37;12.10;99.90
73586;DHT22;61865;50.232;18.614;2022-08-03T01:24:21;12.10;99.90
73586;DHT22;61865;50.232;18.614;2022-08-03T01:26:59;12.00;99.90
73586;DHT22;61865;50.232;18.614;2022-08-03T01:29:45;12.10;99.90
73586;DHT22;61865;50.232;18.614;2022-08-03T01:32:14;12.10;99.90
73586;DHT22;61865;50.232;18.614;2022-08-03T01:34:42;12.10;99.90
73586;DHT22;61865;50.232;18.614;2022-08-03T01:37:07;12.10;99.90
73586;DHT22;61865;50.232;18.614;2022-08-03T01:39:31;12.10;99.90
73586;DHT22;61865;50.232;18.614;2022-08-03T01:41:56;12.00;99.90
73586;DHT22;61865;50.232;18.614;2022-08-03T01:44:21;11.90;99.90
73586;DHT22;61865;50.232;18.614;2022-08-03T01:46:47;11.80;99.90
73586;DHT22;61865;50.232;18.614;2022-08-03T01:49:11;11.80;99.90
73586;DHT22;61865;50.232;18.614;2022-08-03T01:51:35;11.80;99.90
73586;DHT22;61865;50.232;18.614;2022-08-03T01:53:59;11.80;99.90
73586;DHT22;61865;50.232;18.614;2022-08-03T01:56:23;11.90;99.90
73586;DHT22;61865;50.232;18.614;2022-08-03T01:58:47;12.00;99.90
73586;DHT22;61865;50.232;18.614;2022-08-03T02:01:10;12.00;99.90
73586;DHT22;61865;50.232;18.614;2022-08-03T02:03:37;12.10;99.90
73586;DHT22;61865;50.232;18.614;2022-08-03T02:06:00;12.00;99.90
73586;DHT22;61865;50.232;18.614;2022-08-03T02:08:23;12.10;99.90
73586;DHT22;61865;50.232;18.614;2022-08-03T02:10:46;12.10;99.90
73586;DHT22;61865;50.232;18.614;2022-08-03T02:13:11;12.00;99.90
73586;DHT22;61865;50.232;18.614;2022-08-03T02:15:35;12.00;99.90
73586;DHT22;61865;50.232;18.614;2022-08-03T02:17:57;12.00;99.90
73586;DHT22;61865;50.232;18.614;2022-08-03T02:20:23;11.90;99.90
73586;DHT22;61865;50.232;18.614;2022-08-03T02:22:46;12.00;99.90
73586;DHT22;61865;50.232;18.614;2022-08-03T02:25:08;11.90;99.90
73586;DHT22;61865;50.232;18.614;2022-08-03T02:27:32;11.80;99.90
73586;DHT22;61865;50.232;18.614;2022-08-03T02:30:00;11.90;99.90
73586;DHT22;61865;50.232;18.614;2022-08-03T02:32:28;11.90;99.90
73586;DHT22;61865;50.232;18.614;2022-08-03T02:34:52;11.90;99.90
73586;DHT22;61865;50.232;18.614;2022-08-03T02:37:18;11.90;99.90
73586;DHT22;61865;50.232;18.614;2022-08-03T02:39:40;11.90;99.90
73586;DHT22;61865;50.232;18.614;2022-08-03T02:42:04;11.90;99.90
73586;DHT22;61865;50.232;18.614;2022-08-03T02:44:28;11.80;99.90
73586;DHT22;61865;50.232;18.614;2022-08-03T02:46:54;11.80;99.90
73586;DHT22;61865;50.232;18.614;2022-08-03T02:49:17;11.80;99.90
73586;DHT22;61865;50.232;18.614;2022-08-03T02:51:40;11.80;99.90
73586;DHT22;61865;50.232;18.614;2022-08-03T02:54:05;11.90;99.90
73586;DHT22;61865;50.232;18.614;2022-08-03T02:56:28;11.90;99.90
73586;DHT22;61865;50.232;18.614;2022-08-03T02:58:50;12.00;99.90
73586;DHT22;61865;50.232;18.614;2022-08-03T03:01:13;12.00;99.90
73586;DHT22;61865;50.232;18.614;2022-08-03T03:03:36;12.00;99.90
73586;DHT22;61865;50.232;18.614;2022-08-03T03:05:58;12.00;99.90
73586;DHT22;61865;50.232;18.614;2022-08-03T03:08:21;12.00;99.90
73586;DHT22;61865;50.232;18.614;2022-08-03T03:10:45;11.90;99.90
73586;DHT22;61865;50.232;18.614;2022-08-03T03:13:08;11.90;99.90
73586;DHT22;61865;50.232;18.614;2022-08-03T03:15:32;11.90;99.90
73586;DHT22;61865;50.232;18.614;2022-08-03T03:17:55;11.90;99.90
73586;DHT22;61865;50.232;18.614;2022-08-03T03:20:17;11.90;99.90
73586;DHT22;61865;50.232;18.614;2022-08-03T03:22:41;11.80;99.90
73586;DHT22;61865;50.232;18.614;2022-08-03T03:25:05;11.80;99.90
73586;DHT22;61865;50.232;18.614;2022-08-03T03:27:29;11.80;99.90
73586;DHT22;61865;50.232;18.614;2022-08-03T03:29:51;11.80;99.90
73586;DHT22;61865;50.232;18.614;2022-08-03T03:32:14;11.90;99.90
73586;DHT22;61865;50.232;18.614;2022-08-03T03:34:36;12.00;99.90
73586;DHT22;61865;50.232;18.614;2022-08-03T03:36:58;12.10;99.90
73586;DHT22;61865;50.232;18.614;2022-08-03T03:39:20;12.20;99.90
73586;DHT22;61865;50.232;18.614;2022-08-03T03:41:42;12.20;99.90
73586;DHT22;61865;50.232;18.614;2022-08-03T03:44:05;12.30;99.90
73586;DHT22;61865;50.232;18.614;2022-08-03T03:46:28;12.30;99.90
73586;DHT22;61865;50.232;18.614;2022-08-03T03:48:50;12.40;99.90
73586;DHT22;61865;50.232;18.614;2022-08-03T03:51:12;12.50;99.90
73586;DHT22;61865;50.232;18.614;2022-08-03T03:53:35;12.70;99.90
73586;DHT22;61865;50.232;18.614;2022-08-03T03:55:57;12.80;99.90
73586;DHT22;61865;50.232;18.614;2022-08-03T03:58:19;13.00;99.90
73586;DHT22;61865;50.232;18.614;2022-08-03T04:00:42;13.20;99.90
73586;DHT22;61865;50.232;18.614;2022-08-03T04:03:04;13.40;99.90
73586;DHT22;61865;50.232;18.614;2022-08-03T04:05:26;13.50;99.90
73586;DHT22;61865;50.232;18.614;2022-08-03T04:08:08;13.60;99.90
73586;DHT22;61865;50.232;18.614;2022-08-03T04:11:06;13.70;99.90
73586;DHT22;61865;50.232;18.614;2022-08-03T04:13:32;13.90;99.90
73586;DHT22;61865;50.232;18.614;2022-08-03T04:15:56;14.00;99.90
73586;DHT22;61865;50.232;18.614;2022-08-03T04:18:20;14.00;99.90
73586;DHT22;61865;50.232;18.614;2022-08-03T04:20:45;14.10;99.90
73586;DHT22;61865;50.232;18.614;2022-08-03T04:23:08;14.20;99.90
73586;DHT22;61865;50.232;18.614;2022-08-03T04:25:32;14.20;99.90
73586;DHT22;61865;50.232;18.614;2022-08-03T04:27:58;14.40;99.90
73586;DHT22;61865;50.232;18.614;2022-08-03T04:30:21;14.60;99.90
73586;DHT22;61865;50.232;18.614;2022-08-03T04:32:45;14.70;99.90
73586;DHT22;61865;50.232;18.614;2022-08-03T04:35:11;14.90;99.90
73586;DHT22;61865;50.232;18.614;2022-08-03T04:37:37;15.10;99.90
73586;DHT22;61865;50.232;18.614;2022-08-03T04:40:02;15.30;99.90
73586;DHT22;61865;50.232;18.614;2022-08-03T04:42:26;15.40;99.90
73586;DHT22;61865;50.232;18.614;2022-08-03T04:44:49;15.50;99.90
73586;DHT22;61865;50.232;18.614;2022-08-03T04:47:12;15.60;99.90
73586;DHT22;61865;50.232;18.614;2022-08-03T04:49:36;15.60;99.90
73586;DHT22;61865;50.232;18.614;2022-08-03T04:52:00;15.60;99.90
73586;DHT22;61865;50.232;18.614;2022-08-03T04:54:22;15.50;99.90
73586;DHT22;61865;50.232;18.614;2022-08-03T04:56:44;15.40;99.90
73586;DHT22;61865;50.232;18.614;2022-08-03T04:59:06;15.40;99.90
73586;DHT22;61865;50.232;18.614;2022-08-03T05:01:28;15.40;99.90
73586;DHT22;61865;50.232;18.614;2022-08-03T05:03:50;15.50;99.90
73586;DHT22;61865;50.232;18.614;2022-08-03T05:06:13;15.70;99.90
73586;DHT22;61865;50.232;18.614;2022-08-03T05:08:35;16.00;99.90
73586;DHT22;61865;50.232;18.614;2022-08-03T05:10:57;16.40;99.90
73586;DHT22;61865;50.232;18.614;2022-08-03T05:13:19;16.80;99.90
73586;DHT22;61865;50.232;18.614;2022-08-03T05:15:40;17.10;99.90
73586;DHT22;61865;50.232;18.614;2022-08-03T05:18:03;17.40;99.90
73586;DHT22;61865;50.232;18.614;2022-08-03T05:20:24;17.60;99.90
73586;DHT22;61865;50.232;18.614;2022-08-03T05:22:47;17.90;99.90
73586;DHT22;61865;50.232;18.614;2022-08-03T05:25:09;18.30;99.90
73586;DHT22;61865;50.232;18.614;2022-08-03T05:27:31;18.60;99.90
73586;DHT22;61865;50.232;18.614;2022-08-03T05:29:53;18.80;99.90
73586;DHT22;61865;50.232;18.614;2022-08-03T05:32:15;19.00;99.90
73586;DHT22;61865;50.232;18.614;2022-08-03T05:34:37;19.20;99.90
73586;DHT22;61865;50.232;18.614;2022-08-03T05:36:59;19.30;99.90
73586;DHT22;61865;50.232;18.614;2022-08-03T05:39:22;19.50;99.90
73586;DHT22;61865;50.232;18.614;2022-08-03T05:41:44;19.60;99.90
73586;DHT22;61865;50.232;18.614;2022-08-03T05:44:06;19.60;99.90
73586;DHT22;61865;50.232;18.614;2022-08-03T05:46:28;19.70;99.90
73586;DHT22;61865;50.232;18.614;2022-08-03T05:48:50;19.80;99.90
73586;DHT22;61865;50.232;18.614;2022-08-03T05:51:12;19.80;99.90
73586;DHT22;61865;50.232;18.614;2022-08-03T05:53:34;19.90;99.90
73586;DHT22;61865;50.232;18.614;2022-08-03T05:55:57;20.00;99.90
73586;DHT22;61865;50.232;18.614;2022-08-03T05:58:19;20.20;97.40
73586;DHT22;61865;50.232;18.614;2022-08-03T06:00:41;20.30;99.30
73586;DHT22;61865;50.232;18.614;2022-08-03T06:03:03;20.40;97.10
73586;DHT22;61865;50.232;18.614;2022-08-03T06:05:25;20.60;95.00
73586;DHT22;61865;50.232;18.614;2022-08-03T06:07:47;20.70;95.20
73586;DHT22;61865;50.232;18.614;2022-08-03T06:10:10;20.70;93.90
73586;DHT22;61865;50.232;18.614;2022-08-03T06:12:33;20.70;94.50
73586;DHT22;61865;50.232;18.614;2022-08-03T06:14:55;20.80;93.10
73586;DHT22;61865;50.232;18.614;2022-08-03T06:17:17;20.80;91.40
73586;DHT22;61865;50.232;18.614;2022-08-03T06:19:39;20.80;91.00
73586;DHT22;61865;50.232;18.614;2022-08-03T06:22:01;20.80;91.50
73586;DHT22;61865;50.232;18.614;2022-08-03T06:24:23;20.80;92.50
73586;DHT22;61865;50.232;18.614;2022-08-03T06:26:45;20.70;92.50
73586;DHT22;61865;50.232;18.614;2022-08-03T06:29:08;20.70;92.60
73586;DHT22;61865;50.232;18.614;2022-08-03T06:31:30;20.70;92.00
73586;DHT22;61865;50.232;18.614;2022-08-03T06:33:52;20.70;94.60
73586;DHT22;61865;50.232;18.614;2022-08-03T06:36:14;20.80;93.40
73586;DHT22;61865;50.232;18.614;2022-08-03T06:38:36;20.90;93.20
73586;DHT22;61865;50.232;18.614;2022-08-03T06:40:57;21.10;92.70
73586;DHT22;61865;50.232;18.614;2022-08-03T06:43:19;21.20;92.80
73586;DHT22;61865;50.232;18.614;2022-08-03T06:45:42;21.30;91.60
73586;DHT22;61865;50.232;18.614;2022-08-03T06:48:07;21.30;92.40
73586;DHT22;61865;50.232;18.614;2022-08-03T06:50:29;21.50;91.00
73586;DHT22;61865;50.232;18.614;2022-08-03T06:52:51;21.60;89.60
73586;DHT22;61865;50.232;18.614;2022-08-03T06:55:13;21.60;90.40
73586;DHT22;61865;50.232;18.614;2022-08-03T06:57:35;21.80;91.10
73586;DHT22;61865;50.232;18.614;2022-08-03T06:59:57;21.90;90.00
73586;DHT22;61865;50.232;18.614;2022-08-03T07:02:22;22.10;90.00
73586;DHT22;61865;50.232;18.614;2022-08-03T07:04:44;22.20;88.80
73586;DHT22;61865;50.232;18.614;2022-08-03T07:07:06;22.30;83.70
73586;DHT22;61865;50.232;18.614;2022-08-03T07:09:28;22.40;82.20
73586;DHT22;61865;50.232;18.614;2022-08-03T07:11:50;22.40;82.10
73586;DHT22;61865;50.232;18.614;2022-08-03T07:14:12;22.60;81.60
73586;DHT22;61865;50.232;18.614;2022-08-03T07:16:34;22.70;82.10
73586;DHT22;61865;50.232;18.614;2022-08-03T07:18:57;22.80;79.90
73586;DHT22;61865;50.232;18.614;2022-08-03T07:21:19;22.80;77.50
73586;DHT22;61865;50.232;18.614;2022-08-03T07:23:41;22.90;79.40
73586;DHT22;61865;50.232;18.614;2022-08-03T07:26:03;23.00;80.50
73586;DHT22;61865;50.232;18.614;2022-08-03T07:28:25;23.20;79.10
73586;DHT22;61865;50.232;18.614;2022-08-03T07:30:47;23.40;76.00
73586;DHT22;61865;50.232;18.614;2022-08-03T07:33:09;23.40;73.60
73586;DHT22;61865;50.232;18.614;2022-08-03T07:35:32;23.40;73.10
73586;DHT22;61865;50.232;18.614;2022-08-03T07:37:54;23.50;75.40
73586;DHT22;61865;50.232;18.614;2022-08-03T07:40:16;23.60;73.60
73586;DHT22;61865;50.232;18.614;2022-08-03T07:42:38;23.70;75.60
73586;DHT22;61865;50.232;18.614;2022-08-03T07:45:00;23.90;72.00
73586;DHT22;61865;50.232;18.614;2022-08-03T07:47:24;24.10;71.40
73586;DHT22;61865;50.232;18.614;2022-08-03T07:49:46;24.20;70.90
73586;DHT22;61865;50.232;18.614;2022-08-03T07:52:09;24.40;68.30
73586;DHT22;61865;50.232;18.614;2022-08-03T07:54:48;24.50;67.40
73586;DHT22;61865;50.232;18.614;2022-08-03T07:57:10;24.60;65.40
73586;DHT22;61865;50.232;18.614;2022-08-03T07:59:32;24.60;65.50
73586;DHT22;61865;50.232;18.614;2022-08-03T08:01:54;24.60;65.70
73586;DHT22;61865;50.232;18.614;2022-08-03T08:04:16;24.60;65.00
73586;DHT22;61865;50.232;18.614;2022-08-03T08:06:38;24.60;63.00
73586;DHT22;61865;50.232;18.614;2022-08-03T08:09:01;24.50;64.60
73586;DHT22;61865;50.232;18.614;2022-08-03T08:11:23;24.30;67.40
73586;DHT22;61865;50.232;18.614;2022-08-03T08:13:45;24.30;65.80
73586;DHT22;61865;50.232;18.614;2022-08-03T08:16:07;24.20;66.50
73586;DHT22;61865;50.232;18.614;2022-08-03T08:18:29;24.20;64.30
73586;DHT22;61865;50.232;18.614;2022-08-03T08:20:51;24.30;64.30
73586;DHT22;61865;50.232;18.614;2022-08-03T08:23:13;24.30;62.30
73586;DHT22;61865;50.232;18.614;2022-08-03T08:25:36;24.40;62.90
73586;DHT22;61865;50.232;18.614;2022-08-03T08:27:58;24.30;63.70
73586;DHT22;61865;50.232;18.614;2022-08-03T08:30:23;24.30;58.90
73586;DHT22;61865;50.232;18.614;2022-08-03T08:32:45;24.40;60.80
73586;DHT22;61865;50.232;18.614;2022-08-03T08:35:08;24.50;60.80
73586;DHT22;61865;50.232;18.614;2022-08-03T08:37:30;24.60;60.00
73586;DHT22;61865;50.232;18.614;2022-08-03T08:39:52;24.70;60.40
73586;DHT22;61865;50.232;18.614;2022-08-03T08:42:15;24.70;59.40
73586;DHT22;61865;50.232;18.614;2022-08-03T08:44:37;24.80;59.70
73586;DHT22;61865;50.232;18.614;2022-08-03T08:47:02;24.80;59.30
73586;DHT22;61865;50.232;18.614;2022-08-03T08:49:25;24.70;58.40
73586;DHT22;61865;50.232;18.614;2022-08-03T08:51:50;24.70;59.00
73586;DHT22;61865;50.232;18.614;2022-08-03T08:54:14;24.80;57.40
73586;DHT22;61865;50.232;18.614;2022-08-03T08:56:36;24.90;56.90
73586;DHT22;61865;50.232;18.614;2022-08-03T08:59:00;25.00;56.60
73586;DHT22;61865;50.232;18.614;2022-08-03T09:01:23;25.10;57.20
73586;DHT22;61865;50.232;18.614;2022-08-03T09:03:45;25.30;54.30
73586;DHT22;61865;50.232;18.614;2022-08-03T09:06:07;25.40;54.30
73586;DHT22;61865;50.232;18.614;2022-08-03T09:08:30;25.50;54.00
73586;DHT22;61865;50.232;18.614;2022-08-03T09:10:52;25.60;54.30
73586;DHT22;61865;50.232;18.614;2022-08-03T09:13:14;25.70;53.90
73586;DHT22;61865;50.232;18.614;2022-08-03T09:15:38;25.70;53.30
73586;DHT22;61865;50.232;18.614;2022-08-03T09:18:02;25.80;54.00
73586;DHT22;61865;50.232;18.614;2022-08-03T09:20:26;25.90;54.10
73586;DHT22;61865;50.232;18.614;2022-08-03T09:22:54;26.00;53.80
73586;DHT22;61865;50.232;18.614;2022-08-03T09:25:16;26.00;51.30
73586;DHT22;61865;50.232;18.614;2022-08-03T09:27:41;25.70;51.80
73586;DHT22;61865;50.232;18.614;2022-08-03T09:30:12;25.70;52.00
73586;DHT22;61865;50.232;18.614;2022-08-03T09:32:36;25.60;51.60
73586;DHT22;61865;50.232;18.614;2022-08-03T09:35:03;25.50;51.80
73586;DHT22;61865;50.232;18.614;2022-08-03T09:37:25;25.60;52.90
73586;DHT22;61865;50.232;18.614;2022-08-03T09:39:47;25.80;53.30
73586;DHT22;61865;50.232;18.614;2022-08-03T09:42:10;26.00;52.30
73586;DHT22;61865;50.232;18.614;2022-08-03T09:44:36;26.30;50.20
73586;DHT22;61865;50.232;18.614;2022-08-03T09:46:58;26.30;49.80
73586;DHT22;61865;50.232;18.614;2022-08-03T09:49:21;26.20;50.30
73586;DHT22;61865;50.232;18.614;2022-08-03T09:51:44;26.30;51.90
73586;DHT22;61865;50.232;18.614;2022-08-03T09:54:06;26.20;50.40
73586;DHT22;61865;50.232;18.614;2022-08-03T09:56:39;26.20;50.20
73586;DHT22;61865;50.232;18.614;2022-08-03T09:59:01;26.40;51.60
73586;DHT22;61865;50.232;18.614;2022-08-03T10:01:31;26.60;49.20
73586;DHT22;61865;50.232;18.614;2022-08-03T10:03:57;26.40;49.90
73586;DHT22;61865;50.232;18.614;2022-08-03T10:06:21;26.50;49.80
73586;DHT22;61865;50.232;18.614;2022-08-03T10:08:43;26.30;48.20
73586;DHT22;61865;50.232;18.614;2022-08-03T10:11:04;26.20;50.10
73586;DHT22;61865;50.232;18.614;2022-08-03T10:13:27;26.20;51.00
73586;DHT22;61865;50.232;18.614;2022-08-03T10:15:49;26.30;51.00
73586;DHT22;61865;50.232;18.614;2022-08-03T10:18:11;25.90;51.10
73586;DHT22;61865;50.232;18.614;2022-08-03T10:20:40;25.70;50.40
73586;DHT22;61865;50.232;18.614;2022-08-03T10:23:06;25.60;50.60
73586;DHT22;61865;50.232;18.614;2022-08-03T10:25:29;25.60;50.90
73586;DHT22;61865;50.232;18.614;2022-08-03T10:27:51;25.60;51.30
73586;DHT22;61865;50.232;18.614;2022-08-03T10:30:13;25.70;51.30
73586;DHT22;61865;50.232;18.614;2022-08-03T10:32:40;25.90;51.00
73586;DHT22;61865;50.232;18.614;2022-08-03T10:35:04;25.80;52.70
73586;DHT22;61865;50.232;18.614;2022-08-03T10:37:29;25.70;53.50
73586;DHT22;61865;50.232;18.614;2022-08-03T10:39:54;25.60;53.00
73586;DHT22;61865;50.232;18.614;2022-08-03T10:42:16;25.50;53.50
73586;DHT22;61865;50.232;18.614;2022-08-03T10:44:38;25.40;51.60
73586;DHT22;61865;50.232;18.614;2022-08-03T10:47:02;25.40;51.00
73586;DHT22;61865;50.232;18.614;2022-08-03T10:49:25;25.30;51.10
73586;DHT22;61865;50.232;18.614;2022-08-03T10:51:48;25.20;52.70
73586;DHT22;61865;50.232;18.614;2022-08-03T10:54:36;25.20;50.50
73586;DHT22;61865;50.232;18.614;2022-08-03T10:57:45;25.30;50.90
73586;DHT22;61865;50.232;18.614;2022-08-03T11:00:07;25.40;51.70
73586;DHT22;61865;50.232;18.614;2022-08-03T11:03:01;25.60;51.30
73586;DHT22;61865;50.232;18.614;2022-08-03T11:05:27;25.60;50.50
73586;DHT22;61865;50.232;18.614;2022-08-03T11:07:49;25.60;50.00
73586;DHT22;61865;50.232;18.614;2022-08-03T11:10:29;25.60;50.10
73586;DHT22;61865;50.232;18.614;2022-08-03T11:13:05;25.50;50.50
73586;DHT22;61865;50.232;18.614;2022-08-03T11:15:32;25.60;50.00
73586;DHT22;61865;50.232;18.614;2022-08-03T11:18:07;25.70;50.10
73586;DHT22;61865;50.232;18.614;2022-08-03T11:20:43;25.80;49.70
73586;DHT22;61865;50.232;18.614;2022-08-03T11:23:06;25.90;47.90
73586;DHT22;61865;50.232;18.614;2022-08-03T11:25:28;26.00;48.70
73586;DHT22;61865;50.232;18.614;2022-08-03T11:28:27;26.00;49.10
73586;DHT22;61865;50.232;18.614;2022-08-03T11:30:49;26.00;50.60
73586;DHT22;61865;50.232;18.614;2022-08-03T11:33:27;26.00;48.30
73586;DHT22;61865;50.232;18.614;2022-08-03T11:35:58;26.20;48.20
73586;DHT22;61865;50.232;18.614;2022-08-03T11:38:20;26.20;49.10
73586;DHT22;61865;50.232;18.614;2022-08-03T11:40:45;26.30;47.20
73586;DHT22;61865;50.232;18.614;2022-08-03T11:43:09;26.40;47.20
73586;DHT22;61865;50.232;18.614;2022-08-03T11:45:32;26.30;46.80
73586;DHT22;61865;50.232;18.614;2022-08-03T11:47:54;26.30;47.60
73586;DHT22;61865;50.232;18.614;2022-08-03T11:50:18;26.40;49.60
73586;DHT22;61865;50.232;18.614;2022-08-03T11:52:40;26.50;47.50
73586;DHT22;61865;50.232;18.614;2022-08-03T11:55:08;26.50;45.50
73586;DHT22;61865;50.232;18.614;2022-08-03T11:57:31;26.60;47.30
73586;DHT22;61865;50.232;18.614;2022-08-03T11:59:53;26.50;44.00
73586;DHT22;61865;50.232;18.614;2022-08-03T12:02:16;26.40;44.50
73586;DHT22;61865;50.232;18.614;2022-08-03T12:04:49;26.40;44.90
73586;DHT22;61865;50.232;18.614;2022-08-03T12:07:10;26.40;45.40
73586;DHT22;61865;50.232;18.614;2022-08-03T12:09:32;26.30;46.00
73586;DHT22;61865;50.232;18.614;2022-08-03T12:11:55;26.40;44.90
73586;DHT22;61865;50.232;18.614;2022-08-03T12:14:18;26.30;45.20
73586;DHT22;61865;50.232;18.614;2022-08-03T12:16:40;26.40;46.30
73586;DHT22;61865;50.232;18.614;2022-08-03T12:19:08;26.40;43.90
73586;DHT22;61865;50.232;18.614;2022-08-03T12:21:30;26.30;44.10
73586;DHT22;61865;50.232;18.614;2022-08-03T12:23:56;26.40;43.40
73586;DHT22;61865;50.232;18.614;2022-08-03T12:26:19;26.40;43.50
73586;DHT22;61865;50.232;18.614;2022-08-03T12:28:46;26.40;43.30
73586;DHT22;61865;50.232;18.614;2022-08-03T12:31:09;26.40;43.30
73586;DHT22;61865;50.232;18.614;2022-08-03T12:33:31;26.40;44.00
73586;DHT22;61865;50.232;18.614;2022-08-03T12:36:06;26.60;43.70
73586;DHT22;61865;50.232;18.614;2022-08-03T12:38:29;26.70;45.20
73586;DHT22;61865;50.232;18.614;2022-08-03T12:41:03;27.00;46.20
73586;DHT22;61865;50.232;18.614;2022-08-03T12:43:25;27.10;41.90
73586;DHT22;61865;50.232;18.614;2022-08-03T12:45:47;27.00;40.30
73586;DHT22;61865;50.232;18.614;2022-08-03T12:48:09;27.00;41.70
73586;DHT22;61865;50.232;18.614;2022-08-03T12:50:33;26.90;40.60
73586;DHT22;61865;50.232;18.614;2022-08-03T12:52:57;26.80;40.30
73586;DHT22;61865;50.232;18.614;2022-08-03T12:55:20;26.70;43.50
73586;DHT22;61865;50.232;18.614;2022-08-03T12:57:42;26.70;41.10
73586;DHT22;61865;50.232;18.614;2022-08-03T13:00:10;26.70;40.90
73586;DHT22;61865;50.232;18.614;2022-08-03T13:02:32;26.70;41.80
73586;DHT22;61865;50.232;18.614;2022-08-03T13:04:54;26.60;40.70
73586;DHT22;61865;50.232;18.614;2022-08-03T13:07:17;26.70;41.70
73586;DHT22;61865;50.232;18.614;2022-08-03T13:09:42;26.70;42.60
73586;DHT22;61865;50.232;18.614;2022-08-03T13:12:06;26.80;38.60
73586;DHT22;61865;50.232;18.614;2022-08-03T13:14:28;26.80;40.60
73586;DHT22;61865;50.232;18.614;2022-08-03T13:16:50;26.80;40.20
73586;DHT22;61865;50.232;18.614;2022-08-03T13:19:11;26.80;40.70
73586;DHT22;61865;50.232;18.614;2022-08-03T13:21:33;26.90;40.60
73586;DHT22;61865;50.232;18.614;2022-08-03T13:23:55;26.90;42.40
73586;DHT22;61865;50.232;18.614;2022-08-03T13:26:18;27.00;43.10
73586;DHT22;61865;50.232;18.614;2022-08-03T13:28:40;27.10;41.90
73586;DHT22;61865;50.232;18.614;2022-08-03T13:31:03;27.20;40.50
73586;DHT22;61865;50.232;18.614;2022-08-03T13:33:25;27.30;39.10
73586;DHT22;61865;50.232;18.614;2022-08-03T13:35:47;27.30;40.80
73586;DHT22;61865;50.232;18.614;2022-08-03T13:38:09;27.30;40.60
73586;DHT22;61865;50.232;18.614;2022-08-03T13:40:31;27.40;40.00
73586;DHT22;61865;50.232;18.614;2022-08-03T13:42:55;27.50;41.40
73586;DHT22;61865;50.232;18.614;2022-08-03T13:45:17;27.60;40.70
73586;DHT22;61865;50.232;18.614;2022-08-03T13:47:39;27.60;39.70
73586;DHT22;61865;50.232;18.614;2022-08-03T13:50:00;27.70;42.00
73586;DHT22;61865;50.232;18.614;2022-08-03T13:52:22;27.70;39.60
73586;DHT22;61865;50.232;18.614;2022-08-03T13:54:44;27.70;38.90
73586;DHT22;61865;50.232;18.614;2022-08-03T13:57:06;27.70;40.40
73586;DHT22;61865;50.232;18.614;2022-08-03T13:59:29;27.70;38.70
73586;DHT22;61865;50.232;18.614;2022-08-03T14:01:52;27.60;39.20
73586;DHT22;61865;50.232;18.614;2022-08-03T14:04:14;27.70;40.50
73586;DHT22;61865;50.232;18.614;2022-08-03T14:06:36;27.70;39.20
73586;DHT22;61865;50.232;18.614;2022-08-03T14:08:58;27.60;40.20
73586;DHT22;61865;50.232;18.614;2022-08-03T14:11:20;27.70;40.90
73586;DHT22;61865;50.232;18.614;2022-08-03T14:13:42;27.70;38.50
73586;DHT22;61865;50.232;18.614;2022-08-03T14:16:05;27.70;38.70
73586;DHT22;61865;50.232;18.614;2022-08-03T14:18:27;27.70;38.60
73586;DHT22;61865;50.232;18.614;2022-08-03T14:20:49;27.70;39.60
73586;DHT22;61865;50.232;18.614;2022-08-03T14:23:11;27.60;39.40
73586;DHT22;61865;50.232;18.614;2022-08-03T14:25:33;27.70;39.30
73586;DHT22;61865;50.232;18.614;2022-08-03T14:27:55;27.70;38.60
73586;DHT22;61865;50.232;18.614;2022-08-03T14:30:17;27.70;41.00
73586;DHT22;61865;50.232;18.614;2022-08-03T14:32:40;27.80;39.80
73586;DHT22;61865;50.232;18.614;2022-08-03T14:35:03;27.80;41.40
73586;DHT22;61865;50.232;18.614;2022-08-03T14:37:25;27.90;41.70
73586;DHT22;61865;50.232;18.614;2022-08-03T14:39:47;27.90;38.20
73586;DHT22;61865;50.232;18.614;2022-08-03T14:42:09;27.90;38.00
73586;DHT22;61865;50.232;18.614;2022-08-03T14:44:31;27.90;39.70
73586;DHT22;61865;50.232;18.614;2022-08-03T14:46:53;27.90;40.10
73586;DHT22;61865;50.232;18.614;2022-08-03T14:49:16;27.80;38.40
73586;DHT22;61865;50.232;18.614;2022-08-03T14:51:38;27.80;38.90
73586;DHT22;61865;50.232;18.614;2022-08-03T14:53:59;27.70;39.70
73586;DHT22;61865;50.232;18.614;2022-08-03T14:56:21;27.80;40.40
73586;DHT22;61865;50.232;18.614;2022-08-03T14:58:43;27.90;39.00